createdAt,value
2019-06-10T00:00:44.339Z,92.48
2019-06-10T00:01:44.226Z,92.68
2019-06-10T00:02:44.205Z,92.77
2019-06-10T00:03:44.183Z,93.35
2019-06-10T00:04:44.161Z,93.06
2019-06-10T00:05:44.138Z,93.63
2019-06-10T00:06:44.115Z,94.40
2019-06-10T00:07:44.094Z,93.73
2019-06-10T00:08:44.072Z,94.31
2019-06-10T00:09:44.052Z,94.12
2019-06-10T00:10:44.028Z,94.02
2019-06-10T00:11:44.005Z,94.49
2019-06-10T00:12:43.986Z,94.12
2019-06-10T00:13:43.962Z,94.40
2019-06-10T00:14:43.940Z,94.40
2019-06-10T00:15:43.917Z,94.02
2019-06-10T00:16:43.898Z,93.35
2019-06-10T00:17:54.846Z,93.54
2019-06-10T00:18:45.699Z,94.49
2019-06-10T00:19:43.831Z,94.12
2019-06-10T00:20:43.808Z,93.44
2019-06-10T00:21:43.785Z,93.35
2019-06-10T00:22:43.763Z,93.73
2019-06-10T00:23:43.741Z,93.35
2019-06-10T00:24:43.721Z,93.63
2019-06-10T00:25:43.697Z,93.73
2019-06-10T00:26:43.674Z,94.02
2019-06-10T00:27:43.654Z,94.40
2019-06-10T00:28:43.632Z,93.54
2019-06-10T00:29:43.607Z,94.49
2019-06-10T00:30:43.586Z,94.21
2019-06-10T00:31:43.565Z,94.69
2019-06-10T00:32:43.541Z,94.88
2019-06-10T00:33:43.518Z,95.17
2019-06-10T00:34:43.497Z,94.40
2019-06-10T00:35:43.475Z,94.69
2019-06-10T00:36:43.457Z,95.84
2019-06-10T00:37:43.430Z,97.19
2019-06-10T00:38:43.409Z,96.61
2019-06-10T00:39:43.397Z,96.42
2019-06-10T00:40:43.374Z,96.70
2019-06-10T00:41:43.344Z,96.03
2019-06-10T00:42:43.320Z,96.70
2019-06-10T00:43:43.299Z,96.51
2019-06-10T00:44:43.277Z,96.32
2019-06-10T00:45:43.255Z,96.70
2019-06-10T00:46:43.232Z,96.61
2019-06-10T00:47:43.215Z,96.70
2019-06-10T00:48:43.188Z,96.42
2019-06-10T00:49:43.170Z,96.42
2019-06-10T00:50:43.145Z,96.80
2019-06-10T00:51:43.121Z,97.09
2019-06-10T00:52:45.279Z,96.99
2019-06-10T00:53:43.076Z,97.66
2019-06-10T00:54:43.055Z,97.95
2019-06-10T00:55:43.033Z,97.81
2019-06-10T00:56:43.011Z,98.05
2019-06-10T00:57:42.987Z,97.95
2019-06-10T00:58:42.969Z,98.33
2019-06-10T00:59:42.947Z,98.43
2019-06-10T01:00:42.923Z,99.91
2019-06-10T01:01:42.900Z,99.63
2019-06-10T01:02:42.882Z,99.99
2019-06-10T01:03:42.857Z,99.99
2019-06-10T01:04:42.833Z,99.99
2019-06-10T01:05:42.819Z,99.99
2019-06-10T01:06:42.798Z,99.99
2019-06-10T01:07:42.766Z,99.99
2019-06-10T01:08:42.744Z,99.99
2019-06-10T01:09:42.723Z,99.99
2019-06-10T01:10:44.247Z,99.99
2019-06-10T01:11:42.679Z,99.99
2019-06-10T01:12:42.654Z,99.99
2019-06-10T01:13:42.632Z,99.99
2019-06-10T01:14:42.610Z,99.99
2019-06-10T01:15:42.590Z,99.99
2019-06-10T01:16:42.566Z,99.99
2019-06-10T01:17:42.541Z,99.99
2019-06-10T01:18:42.521Z,99.99
2019-06-10T01:19:42.498Z,99.99
2019-06-10T01:20:42.491Z,99.99
2019-06-10T01:21:42.453Z,99.99
2019-06-10T01:22:42.431Z,99.99
2019-06-10T01:23:42.415Z,99.99
2019-06-10T01:24:42.386Z,99.99
2019-06-10T01:25:42.753Z,99.99
2019-06-10T01:26:42.342Z,99.99
2019-06-10T01:27:42.318Z,99.99
2019-06-10T01:28:42.296Z,99.99
2019-06-10T01:29:42.273Z,99.99
2019-06-10T01:30:42.252Z,99.99
2019-06-10T01:31:42.227Z,99.99
2019-06-10T01:32:42.208Z,99.99
2019-06-10T01:33:42.182Z,99.99
2019-06-10T01:34:42.160Z,99.99
2019-06-10T01:35:42.139Z,99.99
2019-06-10T01:36:42.115Z,99.99
2019-06-10T01:37:42.091Z,99.99
2019-06-10T01:38:42.074Z,99.99
2019-06-10T01:39:42.057Z,99.99
2019-06-10T01:40:42.457Z,99.99
2019-06-10T01:41:42.003Z,99.99
2019-06-10T01:42:41.980Z,99.99
2019-06-10T01:43:41.957Z,99.99
2019-06-10T01:44:41.942Z,99.99
2019-06-10T01:45:42.277Z,99.99
2019-06-10T01:46:41.890Z,99.99
2019-06-10T01:47:41.870Z,99.99
2019-06-10T01:48:47.948Z,99.99
2019-06-10T01:49:41.823Z,99.99
2019-06-10T01:50:41.801Z,99.99
2019-06-10T01:51:41.778Z,99.99
2019-06-10T01:52:41.756Z,99.99
2019-06-10T01:53:41.732Z,99.99
2019-06-10T01:54:42.134Z,99.99
2019-06-10T01:55:42.103Z,99.99
2019-06-10T01:56:41.666Z,99.99
2019-06-10T01:57:41.643Z,99.99
2019-06-10T01:58:41.641Z,99.99
2019-06-10T01:59:41.597Z,99.99
2019-06-10T02:00:41.888Z,99.99
2019-06-10T02:01:41.552Z,99.99
2019-06-10T02:02:44.760Z,99.99
2019-06-10T02:03:41.642Z,99.99
2019-06-10T02:04:41.486Z,99.99
2019-06-10T02:05:42.054Z,99.99
2019-06-10T02:06:41.439Z,99.99
2019-06-10T02:07:41.417Z,99.99
2019-06-10T02:08:41.874Z,99.99
2019-06-10T02:09:41.373Z,99.99
2019-06-10T02:10:41.632Z,99.99
2019-06-10T02:11:41.589Z,99.99
2019-06-10T02:12:41.615Z,99.99
2019-06-10T02:13:41.282Z,99.99
2019-06-10T02:14:41.671Z,99.99
2019-06-10T02:15:41.242Z,99.99
2019-06-10T02:16:41.561Z,99.99
2019-06-10T02:17:41.727Z,99.99
2019-06-10T02:18:54.409Z,99.99
2019-06-10T02:19:41.513Z,99.99
2019-06-10T02:20:41.330Z,99.99
2019-06-10T02:21:41.734Z,99.99
2019-06-10T02:22:41.278Z,99.99
2019-06-10T02:23:41.235Z,99.99
2019-06-10T02:24:41.655Z,99.99
2019-06-10T02:25:41.335Z,99.99
2019-06-10T02:26:41.179Z,99.99
2019-06-10T02:27:41.523Z,99.99
2019-06-10T02:28:40.946Z,99.99
2019-06-10T02:29:41.270Z,99.99
2019-06-10T02:30:50.323Z,99.99
2019-06-10T02:31:43.309Z,99.99
2019-06-10T02:32:42.839Z,99.99
2019-06-10T02:33:42.026Z,99.99
2019-06-10T02:34:53.621Z,99.99
2019-06-10T02:35:48.404Z,99.99
2019-06-10T02:36:44.229Z,99.99
2019-06-10T02:37:44.228Z,99.99
2019-06-10T02:38:44.218Z,99.99
2019-06-10T02:39:43.773Z,99.99
2019-06-10T02:40:43.334Z,99.99
2019-06-10T02:41:44.231Z,99.99
2019-06-10T02:42:43.556Z,99.99
2019-06-10T02:43:43.814Z,99.99
2019-06-10T02:44:44.175Z,99.99
2019-06-10T02:45:44.204Z,99.99
2019-06-10T02:46:43.971Z,99.99
2019-06-10T02:47:44.024Z,99.99
2019-06-10T02:48:43.358Z,99.99
2019-06-10T02:49:55.837Z,99.99
2019-06-10T02:50:43.856Z,99.99
2019-06-10T02:51:43.457Z,99.99
2019-06-10T02:52:44.073Z,99.99
2019-06-10T02:53:43.098Z,99.99
2019-06-10T02:54:43.703Z,99.99
2019-06-10T02:55:43.223Z,99.99
2019-06-10T02:56:43.902Z,99.99
2019-06-10T02:57:40.812Z,99.99
2019-06-10T02:58:44.509Z,99.99
2019-06-10T02:59:43.419Z,99.99
2019-06-10T03:00:47.484Z,99.99
2019-06-10T03:01:43.579Z,99.99
2019-06-10T03:02:44.525Z,99.99
2019-06-10T03:03:45.912Z,99.99
2019-06-10T03:04:43.132Z,99.99
2019-06-10T03:05:41.304Z,99.99
2019-06-10T03:06:44.031Z,99.99
2019-06-10T03:07:40.065Z,99.99
2019-06-10T03:08:43.389Z,99.99
2019-06-10T03:09:42.588Z,99.99
2019-06-10T03:10:43.437Z,99.99
2019-06-10T03:11:40.216Z,99.99
2019-06-10T03:12:42.278Z,99.99
2019-06-10T03:13:39.954Z,99.99
2019-06-10T03:14:42.154Z,99.99
2019-06-10T03:15:39.885Z,99.99
2019-06-10T03:16:42.192Z,99.99
2019-06-10T03:17:39.840Z,99.99
2019-06-10T03:18:39.818Z,99.99
2019-06-10T03:19:47.878Z,99.99
2019-06-10T03:20:39.773Z,99.99
2019-06-10T03:21:39.749Z,99.99
2019-06-10T03:22:42.141Z,99.99
2019-06-10T03:23:39.705Z,99.99
2019-06-10T03:24:42.045Z,99.99
2019-06-10T03:25:39.660Z,99.99
2019-06-10T03:26:39.639Z,99.99
2019-06-10T03:27:42.256Z,99.99
2019-06-10T03:28:39.593Z,99.99
2019-06-10T03:29:42.034Z,99.99
2019-06-10T03:30:52.338Z,99.99
2019-06-10T03:31:43.154Z,99.99
2019-06-10T03:32:42.657Z,99.99
2019-06-10T03:33:42.035Z,99.99
2019-06-10T03:34:45.868Z,99.99
2019-06-10T03:35:39.438Z,99.99
2019-06-10T03:36:39.413Z,99.99
2019-06-10T03:37:39.389Z,99.99
2019-06-10T03:38:39.370Z,99.99
2019-06-10T03:39:39.346Z,99.99
2019-06-10T03:40:39.324Z,99.99
2019-06-10T03:41:39.300Z,99.99
2019-06-10T03:42:39.278Z,99.99
2019-06-10T03:43:39.256Z,99.99
2019-06-10T03:44:39.233Z,99.99
2019-06-10T03:45:39.213Z,99.99
2019-06-10T03:46:39.188Z,99.99
2019-06-10T03:47:39.166Z,99.99
2019-06-10T03:48:39.144Z,99.99
2019-06-10T03:49:49.835Z,99.99
2019-06-10T03:50:39.100Z,99.99
2019-06-10T03:51:39.080Z,99.99
2019-06-10T03:52:39.053Z,99.99
2019-06-10T03:53:39.030Z,99.99
2019-06-10T03:54:39.010Z,99.99
2019-06-10T03:55:38.988Z,99.99
2019-06-10T03:56:38.964Z,99.99
2019-06-10T03:57:38.942Z,99.99
2019-06-10T03:58:38.920Z,99.99
2019-06-10T03:59:38.897Z,99.99
2019-06-10T04:00:38.877Z,99.99
2019-06-10T04:01:38.851Z,99.99
2019-06-10T04:02:38.830Z,99.99
2019-06-10T04:03:38.808Z,99.99
2019-06-10T04:04:38.786Z,99.99
2019-06-10T04:05:38.767Z,99.99
2019-06-10T04:06:38.752Z,99.99
2019-06-10T04:07:38.720Z,99.99
2019-06-10T04:08:38.695Z,99.99
2019-06-10T04:09:38.672Z,99.99
2019-06-10T04:10:38.652Z,99.99
2019-06-10T04:11:38.735Z,99.99
2019-06-10T04:12:38.607Z,99.99
2019-06-10T04:13:38.585Z,99.99
2019-06-10T04:14:38.563Z,99.99
2019-06-10T04:15:38.539Z,99.99
2019-06-10T04:16:38.517Z,99.99
2019-06-10T04:17:38.498Z,99.99
2019-06-10T04:18:38.471Z,99.99
2019-06-10T04:19:38.448Z,99.99
2019-06-10T04:20:38.428Z,99.99
2019-06-10T04:21:38.416Z,99.99
2019-06-10T04:22:38.385Z,99.99
2019-06-10T04:23:38.359Z,99.99
2019-06-10T04:24:38.340Z,99.99
2019-06-10T04:25:38.314Z,99.99
2019-06-10T04:26:38.292Z,99.99
2019-06-10T04:27:38.271Z,99.99
2019-06-10T04:28:38.250Z,99.99
2019-06-10T04:29:38.226Z,99.99
2019-06-10T04:30:38.215Z,99.99
2019-06-10T04:31:38.206Z,99.99
2019-06-10T04:32:38.158Z,99.99
2019-06-10T04:33:38.136Z,99.99
2019-06-10T04:34:38.113Z,99.99
2019-06-10T04:35:38.091Z,99.99
2019-06-10T04:36:38.070Z,99.99
2019-06-10T04:37:38.046Z,99.99
2019-06-10T04:38:38.022Z,99.99
2019-06-10T04:39:37.999Z,99.99
2019-06-10T04:40:37.980Z,99.99
2019-06-10T04:41:38.077Z,99.99
2019-06-10T04:42:37.934Z,99.99
2019-06-10T04:43:37.912Z,99.99
2019-06-10T04:44:37.890Z,99.99
2019-06-10T04:45:37.867Z,99.99
2019-06-10T04:46:37.845Z,99.99
2019-06-10T04:47:37.822Z,99.99
2019-06-10T04:48:37.800Z,99.99
2019-06-10T04:49:37.776Z,99.99
2019-06-10T04:50:45.502Z,99.99
2019-06-10T04:51:37.785Z,99.99
2019-06-10T04:52:37.712Z,99.99
2019-06-10T04:53:40.305Z,99.99
2019-06-10T04:54:37.665Z,99.99
2019-06-10T04:55:37.644Z,99.99
2019-06-10T04:56:37.622Z,99.99
2019-06-10T04:57:37.607Z,99.99
2019-06-10T04:58:37.577Z,99.99
2019-06-10T04:59:37.555Z,99.99
2019-06-10T05:00:37.532Z,99.99
2019-06-10T05:01:37.551Z,99.99
2019-06-10T05:02:37.487Z,99.99
2019-06-10T05:03:37.465Z,99.99
2019-06-10T05:04:37.446Z,99.99
2019-06-10T05:05:37.421Z,99.99
2019-06-10T05:06:37.400Z,99.99
2019-06-10T05:07:37.377Z,99.99
2019-06-10T05:08:37.384Z,99.99
2019-06-10T05:09:37.334Z,99.99
2019-06-10T05:10:37.311Z,99.99
2019-06-10T05:11:37.307Z,99.99
2019-06-10T05:12:37.267Z,99.99
2019-06-10T05:13:37.245Z,99.99
2019-06-10T05:14:37.223Z,99.99
2019-06-10T05:15:37.201Z,99.99
2019-06-10T05:16:37.181Z,99.99
2019-06-10T05:17:37.157Z,99.99
2019-06-10T05:18:37.136Z,99.99
2019-06-10T05:19:37.114Z,99.99
2019-06-10T05:20:54.217Z,99.99
2019-06-10T05:21:37.147Z,99.99
2019-06-10T05:22:37.047Z,99.99
2019-06-10T05:23:37.027Z,99.99
2019-06-10T05:24:37.005Z,99.99
2019-06-10T05:25:36.982Z,99.99
2019-06-10T05:26:36.960Z,99.99
2019-06-10T05:27:36.937Z,99.99
2019-06-10T05:28:36.917Z,99.99
2019-06-10T05:29:36.895Z,99.99
2019-06-10T05:30:36.873Z,99.99
2019-06-10T05:31:36.852Z,99.99
2019-06-10T05:32:36.830Z,99.99
2019-06-10T05:33:36.807Z,99.99
2019-06-10T05:34:36.788Z,99.99
2019-06-10T05:35:36.764Z,99.99
2019-06-10T05:36:36.743Z,99.99
2019-06-10T05:37:36.721Z,99.99
2019-06-10T05:38:36.699Z,99.99
2019-06-10T05:39:36.679Z,99.99
2019-06-10T05:40:36.658Z,99.99
2019-06-10T05:41:36.636Z,99.99
2019-06-10T05:42:36.624Z,99.99
2019-06-10T05:43:36.592Z,99.99
2019-06-10T05:44:36.572Z,99.99
2019-06-10T05:45:36.549Z,99.99
2019-06-10T05:46:36.528Z,99.99
2019-06-10T05:47:36.508Z,99.99
2019-06-10T05:48:36.486Z,95.69
2019-06-10T05:49:36.469Z,92.56
2019-06-10T05:50:36.445Z,87.49
2019-06-10T05:51:36.427Z,87.10
2019-06-10T05:52:36.412Z,84.16
2019-06-10T05:53:36.385Z,81.05
2019-06-10T05:54:36.364Z,80.43
2019-06-10T05:55:36.347Z,81.24
2019-06-10T05:56:36.333Z,81.92
2019-06-10T05:57:36.308Z,82.81
2019-06-10T05:58:36.288Z,83.92
2019-06-10T05:59:36.271Z,86.77
2019-06-10T06:00:36.252Z,88.08
2019-06-10T06:01:38.260Z,89.00
2019-06-10T06:02:36.215Z,90.20
2019-06-10T06:03:37.069Z,91.27
2019-06-10T06:04:36.216Z,93.43
2019-06-10T06:05:37.979Z,94.30
2019-06-10T06:06:37.412Z,94.54
2019-06-10T06:07:36.121Z,95.40
2019-06-10T06:08:36.102Z,96.66
2019-06-10T06:09:36.085Z,96.61
2019-06-10T06:10:36.115Z,97.28
2019-06-10T06:11:36.045Z,98.39
2019-06-10T06:12:36.027Z,97.62
2019-06-10T06:13:36.152Z,98.58
2019-06-10T06:14:36.203Z,99.35
2019-06-10T06:15:35.971Z,98.10
2019-06-10T06:16:36.294Z,96.56
2019-06-10T06:17:35.932Z,98.00
2019-06-10T06:18:36.502Z,97.24
2019-06-10T06:19:38.408Z,95.89
2019-06-10T06:20:36.035Z,97.86
2019-06-10T06:21:41.869Z,97.47
2019-06-10T06:22:35.832Z,97.28
2019-06-10T06:23:37.088Z,95.50
2019-06-10T06:24:35.822Z,94.54
2019-06-10T06:25:39.807Z,94.64
2019-06-10T06:26:38.062Z,95.60
2019-06-10T06:27:37.060Z,96.46
2019-06-10T06:28:36.182Z,95.50
2019-06-10T06:29:37.051Z,95.40
2019-06-10T06:30:36.436Z,94.54
2019-06-10T06:31:36.486Z,96.66
2019-06-10T06:32:36.951Z,98.39
2019-06-10T06:33:38.033Z,98.49
2019-06-10T06:34:38.342Z,95.89
2019-06-10T06:35:42.730Z,95.60
2019-06-10T06:36:38.012Z,94.54
2019-06-10T06:37:37.724Z,95.69
2019-06-10T06:38:37.193Z,95.69
2019-06-10T06:39:37.064Z,94.82
2019-06-10T06:40:37.320Z,95.21
2019-06-10T06:41:37.190Z,97.33
2019-06-10T06:42:36.775Z,96.42
2019-06-10T06:43:38.964Z,96.03
2019-06-10T06:44:37.655Z,97.57
2019-06-10T06:45:37.290Z,97.86
2019-06-10T06:46:37.859Z,97.86
2019-06-10T06:47:37.119Z,97.33
2019-06-10T06:48:38.346Z,96.75
2019-06-10T06:49:36.817Z,95.45
2019-06-10T06:50:36.178Z,91.16
2019-06-10T06:51:47.708Z,90.48
2019-06-10T06:53:04.960Z,90.25
2019-06-10T06:53:45.468Z,93.04
2019-06-10T06:54:36.238Z,92.94
2019-06-10T06:55:36.542Z,93.87
2019-06-10T06:56:37.375Z,95.45
2019-06-10T06:57:36.774Z,94.39
2019-06-10T06:58:36.913Z,94.78
2019-06-10T06:59:36.925Z,95.16
2019-06-10T07:00:51.004Z,93.72
2019-06-10T07:01:37.628Z,94.78
2019-06-10T07:02:37.210Z,94.87
2019-06-10T07:03:38.104Z,94.54
2019-06-10T07:04:35.873Z,93.66
2019-06-10T07:05:35.979Z,94.06
2019-06-10T07:06:36.031Z,91.40
2019-06-10T07:07:36.019Z,90.96
2019-06-10T07:08:37.542Z,90.87
2019-06-10T07:09:36.178Z,90.14
2019-06-10T07:10:36.128Z,88.59
2019-06-10T07:11:37.393Z,86.57
2019-06-10T07:12:36.451Z,88.11
2019-06-10T07:13:37.118Z,87.05
2019-06-10T07:14:37.303Z,86.76
2019-06-10T07:15:37.722Z,88.02
2019-06-10T07:16:38.651Z,86.57
2019-06-10T07:17:37.394Z,86.38
2019-06-10T07:18:41.155Z,87.34
2019-06-10T07:19:37.952Z,87.92
2019-06-10T07:20:37.605Z,87.05
2019-06-10T07:21:51.465Z,87.05
2019-06-10T07:22:36.888Z,87.67
2019-06-10T07:23:38.877Z,86.89
2019-06-10T07:24:37.900Z,83.16
2019-06-10T07:25:37.339Z,79.08
2019-06-10T07:26:40.535Z,77.82
2019-06-10T07:27:37.567Z,77.67
2019-06-10T07:28:37.452Z,77.28
2019-06-10T07:29:37.415Z,77.42
2019-06-10T07:30:37.653Z,76.76
2019-06-10T07:31:36.418Z,78.11
2019-06-10T07:32:37.344Z,79.08
2019-06-10T07:33:37.373Z,78.54
2019-06-10T07:34:36.724Z,77.96
2019-06-10T07:35:35.737Z,77.82
2019-06-10T07:36:35.624Z,76.79
2019-06-10T07:37:34.999Z,77.37
2019-06-10T07:38:37.204Z,78.44
2019-06-10T07:39:36.468Z,78.67
2019-06-10T07:40:35.916Z,78.54
2019-06-10T07:41:35.631Z,78.34
2019-06-10T07:42:34.911Z,77.88
2019-06-10T07:43:38.267Z,80.16
2019-06-10T07:44:34.908Z,81.38
2019-06-10T07:45:37.761Z,83.27
2019-06-10T07:46:36.044Z,84.14
2019-06-10T07:47:35.321Z,84.10
2019-06-10T07:48:36.508Z,85.45
2019-06-10T07:49:35.378Z,86.17
2019-06-10T07:50:34.994Z,85.40
2019-06-10T07:51:35.788Z,84.43
2019-06-10T07:52:35.603Z,84.53
2019-06-10T07:53:36.325Z,84.24
2019-06-10T07:54:34.808Z,85.15
2019-06-10T07:55:35.012Z,84.57
2019-06-10T07:56:38.875Z,84.57
2019-06-10T07:57:34.738Z,84.91
2019-06-10T07:58:36.493Z,84.43
2019-06-10T07:59:35.323Z,85.00
2019-06-10T08:00:36.233Z,83.59
2019-06-10T08:01:35.103Z,80.79
2019-06-10T08:02:34.416Z,78.79
2019-06-10T08:03:35.261Z,77.90
2019-06-10T08:04:35.239Z,77.42
2019-06-10T08:05:34.291Z,78.97
2019-06-10T08:06:36.106Z,78.05
2019-06-10T08:07:35.184Z,79.32
2019-06-10T08:08:34.820Z,80.15
2019-06-10T08:09:35.697Z,79.57
2019-06-10T08:10:35.006Z,80.63
2019-06-10T08:11:35.142Z,80.49
2019-06-10T08:12:35.061Z,81.65
2019-06-10T08:13:35.175Z,83.36
2019-06-10T08:14:33.879Z,83.31
2019-06-10T08:15:33.866Z,83.41
2019-06-10T08:16:33.847Z,83.89
2019-06-10T08:17:33.831Z,85.63
2019-06-10T08:18:44.721Z,86.11
2019-06-10T08:19:37.789Z,86.17
2019-06-10T08:20:34.925Z,85.30
2019-06-10T08:21:33.769Z,86.75
2019-06-10T08:22:39.908Z,85.98
2019-06-10T08:23:33.745Z,86.75
2019-06-10T08:24:33.723Z,87.13
2019-06-10T08:25:33.704Z,86.94
2019-06-10T08:26:33.689Z,86.03
2019-06-10T08:27:33.738Z,86.85
2019-06-10T08:28:33.656Z,86.85
2019-06-10T08:29:33.650Z,87.77
2019-06-10T08:30:33.628Z,87.77
2019-06-10T08:31:33.608Z,87.87
2019-06-10T08:32:33.766Z,87.87
2019-06-10T08:33:33.574Z,88.78
2019-06-10T08:34:33.558Z,86.65
2019-06-10T08:35:41.993Z,86.99
2019-06-10T08:36:33.553Z,85.44
2019-06-10T08:37:33.508Z,84.77
2019-06-10T08:38:33.493Z,83.64
2019-06-10T08:39:33.688Z,83.74
2019-06-10T08:40:33.461Z,83.49
2019-06-10T08:41:33.442Z,82.62
2019-06-10T08:42:33.428Z,80.79
2019-06-10T08:43:33.412Z,80.92
2019-06-10T08:44:33.395Z,80.11
2019-06-10T08:45:33.489Z,79.68
2019-06-10T08:46:33.363Z,80.69
2019-06-10T08:47:33.347Z,82.23
2019-06-10T08:48:33.332Z,80.54
2019-06-10T08:49:33.316Z,79.66
2019-06-10T08:50:33.828Z,80.15
2019-06-10T08:51:33.285Z,77.28
2019-06-10T08:52:48.918Z,77.76
2019-06-10T08:53:33.324Z,78.21
2019-06-10T08:54:33.238Z,78.21
2019-06-10T08:55:33.547Z,78.25
2019-06-10T08:56:33.206Z,75.48
2019-06-10T08:57:33.560Z,73.55
2019-06-10T08:58:33.297Z,70.39
2019-06-10T08:59:33.250Z,67.38
2019-06-10T09:00:33.786Z,67.02
2019-06-10T09:01:33.601Z,65.56
2019-06-10T09:02:33.502Z,64.62
2019-06-10T09:03:33.102Z,63.90
2019-06-10T09:04:33.231Z,64.07
2019-06-10T09:05:33.073Z,63.84
2019-06-10T09:06:33.159Z,63.81
2019-06-10T09:07:33.045Z,63.81
2019-06-10T09:08:33.031Z,63.68
2019-06-10T09:09:33.634Z,64.20
2019-06-10T09:10:33.931Z,63.68
2019-06-10T09:11:33.023Z,62.64
2019-06-10T09:12:36.548Z,63.71
2019-06-10T09:13:33.807Z,64.91
2019-06-10T09:14:32.948Z,64.98
2019-06-10T09:15:32.935Z,64.20
2019-06-10T09:16:33.050Z,63.23
2019-06-10T09:17:33.891Z,63.42
2019-06-10T09:18:33.879Z,63.45
2019-06-10T09:19:33.332Z,62.35
2019-06-10T09:20:33.270Z,62.47
2019-06-10T09:21:33.195Z,62.99
2019-06-10T09:22:32.850Z,60.98
2019-06-10T09:23:33.265Z,59.91
2019-06-10T09:24:32.929Z,61.93
2019-06-10T09:25:33.529Z,62.48
2019-06-10T09:26:33.838Z,62.38
2019-06-10T09:27:32.878Z,62.41
2019-06-10T09:28:33.088Z,62.02
2019-06-10T09:29:32.999Z,62.99
2019-06-10T09:30:33.382Z,62.93
2019-06-10T09:31:33.146Z,64.53
2019-06-10T09:32:32.715Z,63.71
2019-06-10T09:33:33.211Z,62.26
2019-06-10T09:34:33.197Z,61.18
2019-06-10T09:35:32.676Z,65.20
2019-06-10T09:36:32.680Z,61.83
2019-06-10T09:37:32.650Z,61.34
2019-06-10T09:38:33.525Z,61.34
2019-06-10T09:39:32.938Z,61.18
2019-06-10T09:40:33.338Z,60.66
2019-06-10T09:41:41.064Z,62.12
2019-06-10T09:42:33.295Z,61.34
2019-06-10T09:43:33.251Z,61.21
2019-06-10T09:44:33.372Z,58.74
2019-06-10T09:45:33.292Z,59.39
2019-06-10T09:46:33.252Z,61.11
2019-06-10T09:47:34.709Z,62.23
2019-06-10T09:48:33.523Z,64.40
2019-06-10T09:49:33.569Z,65.63
2019-06-10T09:50:33.424Z,66.50
2019-06-10T09:51:32.613Z,65.33
2019-06-10T09:52:32.977Z,66.05
2019-06-10T09:53:41.293Z,65.89
2019-06-10T09:54:33.578Z,67.05
2019-06-10T09:55:32.924Z,65.20
2019-06-10T09:56:33.108Z,64.72
2019-06-10T09:57:32.398Z,65.37
2019-06-10T09:58:33.105Z,66.63
2019-06-10T09:59:32.436Z,67.02
2019-06-10T10:00:33.151Z,65.72
2019-06-10T10:01:32.749Z,65.30
2019-06-10T10:02:33.166Z,64.85
2019-06-10T10:03:33.051Z,66.60
2019-06-10T10:04:32.838Z,64.98
2019-06-10T10:05:33.794Z,65.17
2019-06-10T10:06:32.809Z,65.59
2019-06-10T10:07:32.513Z,65.27
2019-06-10T10:08:32.705Z,66.89
2019-06-10T10:09:36.677Z,67.63
2019-06-10T10:10:32.795Z,69.18
2019-06-10T10:11:32.225Z,69.15
2019-06-10T10:12:32.821Z,69.24
2019-06-10T10:13:35.356Z,70.41
2019-06-10T10:14:33.457Z,70.15
2019-06-10T10:15:34.528Z,68.79
2019-06-10T10:16:33.975Z,69.90
2019-06-10T10:17:33.411Z,68.15
2019-06-10T10:18:33.454Z,67.96
2019-06-10T10:19:32.097Z,68.60
2019-06-10T10:20:34.085Z,70.09
2019-06-10T10:21:32.069Z,67.86
2019-06-10T10:22:33.616Z,68.15
2019-06-10T10:23:49.600Z,67.99
2019-06-10T10:24:34.074Z,68.35
2019-06-10T10:25:32.829Z,69.22
2019-06-10T10:26:31.999Z,69.22
2019-06-10T10:27:32.427Z,67.80
2019-06-10T10:28:33.439Z,67.41
2019-06-10T10:29:32.833Z,67.66
2019-06-10T10:30:33.189Z,68.99
2019-06-10T10:31:32.502Z,69.54
2019-06-10T10:32:33.410Z,70.15
2019-06-10T10:33:33.366Z,71.06
2019-06-10T10:34:33.317Z,67.21
2019-06-10T10:35:32.639Z,67.11
2019-06-10T10:36:33.525Z,67.34
2019-06-10T10:37:32.754Z,67.24
2019-06-10T10:38:34.541Z,68.15
2019-06-10T10:39:32.713Z,66.50
2019-06-10T10:40:32.567Z,67.96
2019-06-10T10:41:32.333Z,65.92
2019-06-10T10:42:42.721Z,66.79
2019-06-10T10:43:34.061Z,65.20
2019-06-10T10:44:32.005Z,67.93
2019-06-10T10:45:31.735Z,68.15
2019-06-10T10:46:32.624Z,67.50
2019-06-10T10:47:33.586Z,67.54
2019-06-10T10:48:33.593Z,65.53
2019-06-10T10:49:32.639Z,64.56
2019-06-10T10:50:34.136Z,66.14
2019-06-10T10:51:32.692Z,65.01
2019-06-10T10:52:33.075Z,65.30
2019-06-10T10:53:32.818Z,65.98
2019-06-10T10:54:35.994Z,67.08
2019-06-10T10:55:33.376Z,67.34
2019-06-10T10:56:33.468Z,65.92
2019-06-10T10:57:33.044Z,65.20
2019-06-10T10:58:33.041Z,62.96
2019-06-10T10:59:33.254Z,62.60
2019-06-10T11:00:36.601Z,59.91
2019-06-10T11:01:33.295Z,59.52
2019-06-10T11:02:32.207Z,60.69
2019-06-10T11:03:33.635Z,62.96
2019-06-10T11:04:32.849Z,64.69
2019-06-10T11:05:33.301Z,64.75
2019-06-10T11:06:32.311Z,65.50
2019-06-10T11:07:33.936Z,65.50
2019-06-10T11:08:33.334Z,66.02
2019-06-10T11:09:33.033Z,65.17
2019-06-10T11:10:33.018Z,64.52
2019-06-10T11:11:33.253Z,63.39
2019-06-10T11:12:33.179Z,63.94
2019-06-10T11:13:33.314Z,63.48
2019-06-10T11:14:33.337Z,61.21
2019-06-10T11:15:33.804Z,62.29
2019-06-10T11:16:33.029Z,63.02
2019-06-10T11:17:33.687Z,62.76
2019-06-10T11:18:33.561Z,60.95
2019-06-10T11:19:32.840Z,62.51
2019-06-10T11:20:33.526Z,62.29
2019-06-10T11:21:33.043Z,64.65
2019-06-10T11:22:32.820Z,65.72
2019-06-10T11:23:34.229Z,66.37
2019-06-10T11:24:37.751Z,67.28
2019-06-10T11:25:33.201Z,64.72
2019-06-10T11:26:32.834Z,65.98
2019-06-10T11:27:33.150Z,66.86
2019-06-10T11:28:32.125Z,66.05
2019-06-10T11:29:32.865Z,67.76
2019-06-10T11:30:32.417Z,67.60
2019-06-10T11:31:32.852Z,66.60
2019-06-10T11:32:32.784Z,67.57
2019-06-10T11:33:32.902Z,67.21
2019-06-10T11:34:33.269Z,67.24
2019-06-10T11:35:31.058Z,66.27
2019-06-10T11:36:31.044Z,65.63
2019-06-10T11:37:31.029Z,65.14
2019-06-10T11:38:32.909Z,66.99
2019-06-10T11:39:33.020Z,65.63
2019-06-10T11:40:33.887Z,65.92
2019-06-10T11:41:32.493Z,65.72
2019-06-10T11:42:33.385Z,64.65
2019-06-10T11:43:33.100Z,65.66
2019-06-10T11:44:33.195Z,65.20
2019-06-10T11:45:32.869Z,63.78
2019-06-10T11:46:32.566Z,65.82
2019-06-10T11:47:32.901Z,64.65
2019-06-10T11:48:32.830Z,63.75
2019-06-10T11:49:30.863Z,63.13
2019-06-10T11:50:33.264Z,63.35
2019-06-10T11:51:30.836Z,64.04
2019-06-10T11:52:33.481Z,63.13
2019-06-10T11:53:31.202Z,64.32
2019-06-10T11:54:33.996Z,64.69
2019-06-10T11:55:32.759Z,60.62
2019-06-10T11:56:33.504Z,60.16
2019-06-10T11:57:32.953Z,60.13
2019-06-10T11:58:33.083Z,60.78
2019-06-10T11:59:32.763Z,61.05
2019-06-10T12:00:33.051Z,61.34
2019-06-10T12:01:30.925Z,62.51
2019-06-10T12:02:32.847Z,63.68
2019-06-10T12:03:30.675Z,63.16
2019-06-10T12:04:30.663Z,63.39
2019-06-10T12:05:32.638Z,62.99
2019-06-10T12:06:33.360Z,61.80
2019-06-10T12:07:33.035Z,62.29
2019-06-10T12:08:32.871Z,62.80
2019-06-10T12:09:33.174Z,60.78
2019-06-10T12:10:32.960Z,61.24
2019-06-10T12:11:31.911Z,62.90
2019-06-10T12:12:33.516Z,61.99
2019-06-10T12:13:33.344Z,62.19
2019-06-10T12:14:32.838Z,63.55
2019-06-10T12:15:46.254Z,62.29
2019-06-10T12:17:15.398Z,63.32
2019-06-10T12:17:43.157Z,63.20
2019-06-10T12:18:33.088Z,63.39
2019-06-10T12:19:33.564Z,64.23
2019-06-10T12:20:33.252Z,64.14
2019-06-10T12:21:32.892Z,65.69
2019-06-10T12:22:32.960Z,65.11
2019-06-10T12:23:33.497Z,66.11
2019-06-10T12:24:32.874Z,64.78
2019-06-10T12:25:36.875Z,63.68
2019-06-10T12:26:30.369Z,62.15
2019-06-10T12:27:32.428Z,62.12
2019-06-10T12:28:32.690Z,59.31
2019-06-10T12:29:30.329Z,59.12
2019-06-10T12:30:30.315Z,58.07
2019-06-10T12:31:30.303Z,57.46
2019-06-10T12:32:30.290Z,58.27
2019-06-10T12:33:33.326Z,55.66
2019-06-10T12:34:32.974Z,56.67
2019-06-10T12:35:30.249Z,57.25
2019-06-10T12:36:30.239Z,55.37
2019-06-10T12:37:30.225Z,56.79
2019-06-10T12:38:32.484Z,56.43
2019-06-10T12:39:30.198Z,55.74
2019-06-10T12:40:30.188Z,56.56
2019-06-10T12:41:30.173Z,54.99
2019-06-10T12:42:32.259Z,52.32
2019-06-10T12:43:32.427Z,54.32
2019-06-10T12:44:31.324Z,57.42
2019-06-10T12:45:32.511Z,55.57
2019-06-10T12:46:32.645Z,55.57
2019-06-10T12:47:30.099Z,56.25
2019-06-10T12:48:30.089Z,55.27
2019-06-10T12:49:32.045Z,55.10
2019-06-10T12:50:30.217Z,54.05
2019-06-10T12:51:30.051Z,53.39
2019-06-10T12:52:32.390Z,54.17